createdAt,value
2023-04-25T00:01:23.746Z,42.50
2023-04-25T00:04:27.257Z,42.75
2023-04-25T00:07:29.801Z,44.00
2023-04-25T00:10:32.769Z,40.50
2023-04-25T00:13:35.302Z,42.00
2023-04-25T00:16:38.073Z,43.25
2023-04-25T00:19:40.456Z,39.25
2023-04-25T00:22:43.172Z,46.25
2023-04-25T00:25:47.210Z,41.00
2023-04-25T00:28:49.901Z,45.75
2023-04-25T00:31:52.482Z,40.00
2023-04-25T00:34:57.000Z,44.25
2023-04-25T00:37:59.706Z,43.50
2023-04-25T00:41:02.362Z,44.00
2023-04-25T00:44:05.476Z,40.25
2023-04-25T00:47:08.385Z,39.75
2023-04-25T00:50:11.327Z,42.00
2023-04-25T00:53:14.275Z,39.50
2023-04-25T00:56:17.582Z,40.75
2023-04-25T00:59:21.466Z,43.50
2023-04-25T01:02:23.983Z,41.50
2023-04-25T01:05:26.803Z,39.50
2023-04-25T01:08:29.333Z,41.00
2023-04-25T01:11:32.253Z,36.25
2023-04-25T01:14:34.869Z,39.00
2023-04-25T01:17:38.127Z,36.25
2023-04-25T01:20:41.930Z,39.50
2023-04-25T01:23:44.749Z,41.75
2023-04-25T01:26:50.965Z,36.50
2023-04-25T01:29:58.454Z,38.00
2023-04-25T01:33:01.951Z,35.25
2023-04-25T01:36:05.710Z,33.00
2023-04-25T01:39:08.397Z,37.25
2023-04-25T01:42:11.185Z,38.25
2023-04-25T01:45:13.955Z,35.25
2023-04-25T01:48:16.709Z,35.00
2023-04-25T01:51:20.409Z,38.25
2023-04-25T01:54:23.086Z,38.00
2023-04-25T01:57:25.958Z,35.00
2023-04-25T02:00:29.598Z,37.50
2023-04-25T02:03:33.840Z,41.25
2023-04-25T02:06:37.706Z,37.50
2023-04-25T02:09:40.423Z,41.25
2023-04-25T02:12:44.039Z,38.25
2023-04-25T02:16:00.808Z,41.00
2023-04-25T02:19:04.052Z,43.00
2023-04-25T02:22:06.723Z,35.75
2023-04-25T02:25:10.377Z,38.25
2023-04-25T02:28:13.074Z,39.00
2023-04-25T02:31:15.817Z,40.25
2023-04-25T02:34:18.225Z,37.75
2023-04-25T02:37:20.976Z,40.25
2023-04-25T02:40:24.241Z,35.75
2023-04-25T02:43:27.013Z,39.75
2023-04-25T02:46:38.909Z,40.75
2023-04-25T02:49:43.534Z,32.50
2023-04-25T02:52:47.244Z,40.75
2023-04-25T02:56:00.367Z,34.75
2023-04-25T02:59:02.908Z,37.50
2023-04-25T03:02:07.248Z,39.50
2023-04-25T03:05:10.115Z,37.75
2023-04-25T03:08:14.238Z,35.75
2023-04-25T03:11:16.731Z,40.25
2023-04-25T03:14:20.233Z,32.00
2023-04-25T03:17:22.585Z,39.00
2023-04-25T03:20:26.201Z,38.75
2023-04-25T03:23:28.566Z,41.25
2023-04-25T03:26:32.396Z,39.00
2023-04-25T03:29:35.754Z,38.50
2023-04-25T03:32:40.702Z,37.00
2023-04-25T03:35:43.861Z,39.75
2023-04-25T03:38:47.725Z,27.25
2023-04-25T03:41:51.574Z,30.25
2023-04-25T03:44:55.821Z,29.25
2023-04-25T03:47:58.618Z,32.25
2023-04-25T03:51:03.955Z,30.75
2023-04-25T03:54:08.886Z,28.75
2023-04-25T03:57:31.777Z,23.50
2023-04-25T04:00:35.109Z,28.25
2023-04-25T04:03:38.749Z,30.00
2023-04-25T04:06:42.001Z,25.00
2023-04-25T04:09:50.585Z,24.25
2023-04-25T04:13:01.819Z,22.50
2023-04-25T04:16:05.590Z,29.00
2023-04-25T04:19:09.574Z,24.75
2023-04-25T04:22:13.281Z,24.50
2023-04-25T04:25:17.170Z,27.25
2023-04-25T04:28:39.124Z,31.50
2023-04-25T04:31:53.954Z,30.75
2023-04-25T04:34:57.019Z,34.25
2023-04-25T04:38:01.137Z,36.25
2023-04-25T04:41:08.545Z,36.00
2023-04-25T04:44:22.849Z,33.25
2023-04-25T04:47:41.895Z,32.75
2023-04-25T04:50:51.707Z,31.25
2023-04-25T04:54:13.366Z,31.75
2023-04-25T04:57:46.572Z,36.50
2023-04-25T05:01:08.791Z,31.25
2023-04-25T05:04:31.939Z,34.50
2023-04-25T05:07:57.718Z,32.75
2023-04-25T05:11:10.617Z,36.50
2023-04-25T05:14:39.354Z,29.25
2023-04-25T05:18:05.182Z,35.50
2023-04-25T05:21:20.906Z,36.00
2023-04-25T05:24:46.096Z,33.50
2023-04-25T05:28:07.268Z,33.00
2023-04-25T05:31:28.091Z,31.75
2023-04-25T05:34:49.974Z,28.00
2023-04-25T05:37:59.072Z,29.50
2023-04-25T05:41:21.537Z,30.00
2023-04-25T05:44:37.054Z,25.50
2023-04-25T05:48:06.004Z,30.50
2023-04-25T05:51:19.723Z,29.00
2023-04-25T05:54:43.289Z,33.75
2023-04-25T05:57:46.499Z,29.50
2023-04-25T06:00:52.929Z,30.50
2023-04-25T06:03:55.723Z,24.25
2023-04-25T06:06:58.869Z,27.25
2023-04-25T06:10:02.253Z,27.50
2023-04-25T06:13:06.280Z,29.00
2023-04-25T06:16:11.935Z,25.25
2023-04-25T06:19:15.736Z,30.50
2023-04-25T06:22:28.447Z,25.00
2023-04-25T06:25:33.325Z,30.75
2023-04-25T06:28:36.459Z,24.25
2023-04-25T06:31:39.841Z,29.00
2023-04-25T06:34:42.702Z,28.00
2023-04-25T06:37:45.890Z,33.00
2023-04-25T06:40:48.830Z,29.50
2023-04-25T06:43:52.938Z,28.25
2023-04-25T06:47:01.395Z,28.25
2023-04-25T06:50:04.597Z,26.00
2023-04-25T06:53:09.964Z,29.75
2023-04-25T06:56:13.384Z,27.75
2023-04-25T06:59:37.887Z,30.75
2023-04-25T07:02:41.921Z,29.75
2023-04-25T07:05:44.704Z,28.75
2023-04-25T07:08:49.426Z,28.00
2023-04-25T07:11:52.282Z,26.25
2023-04-25T07:14:55.162Z,27.25
2023-04-25T07:17:57.693Z,24.25
2023-04-25T07:21:00.714Z,27.25
2023-04-25T07:24:04.269Z,23.75
2023-04-25T07:27:11.673Z,28.75
2023-04-25T07:30:31.346Z,29.00
2023-04-25T07:33:35.058Z,27.00
2023-04-25T07:36:37.922Z,28.00
2023-04-25T07:39:40.916Z,32.25
2023-04-25T07:42:43.417Z,27.75
2023-04-25T07:45:48.365Z,28.00
2023-04-25T07:48:53.793Z,30.50
2023-04-25T07:51:58.047Z,33.00
2023-04-25T07:55:01.835Z,36.25
2023-04-25T07:58:17.505Z,31.25
2023-04-25T08:01:23.399Z,28.00
2023-04-25T08:04:38.571Z,28.25
2023-04-25T08:07:45.053Z,28.25
2023-04-25T08:10:49.623Z,33.00
2023-04-25T08:13:53.881Z,32.50
2023-04-25T08:16:57.564Z,31.00
2023-04-25T08:20:01.574Z,29.00
2023-04-25T08:23:06.358Z,25.25
2023-04-25T08:26:30.396Z,29.25
2023-04-25T08:29:33.877Z,30.00
2023-04-25T08:32:39.635Z,31.50
2023-04-25T08:35:56.312Z,31.00
2023-04-25T08:38:59.972Z,26.25
2023-04-25T08:42:09.985Z,26.75
2023-04-25T08:45:13.660Z,31.00
2023-04-25T08:48:19.045Z,28.00
2023-04-25T08:51:26.267Z,31.75
2023-04-25T08:54:35.349Z,19.50
2023-04-25T08:57:45.075Z,24.00
2023-04-25T09:00:48.973Z,21.75
2023-04-25T09:03:53.235Z,24.25
2023-04-25T09:06:55.893Z,20.75
2023-04-25T09:10:00.983Z,22.75
2023-04-25T09:13:06.740Z,18.25
2023-04-25T09:16:23.028Z,20.25
2023-04-25T09:19:52.500Z,14.25
2023-04-25T09:23:08.420Z,21.00
2023-04-25T09:26:18.475Z,18.75
2023-04-25T09:29:31.114Z,24.50
2023-04-25T09:32:34.547Z,20.25
2023-04-25T09:35:39.904Z,19.00
2023-04-25T09:38:46.819Z,23.00
2023-04-25T09:42:01.016Z,19.50
2023-04-25T09:45:03.791Z,20.25
2023-04-25T09:48:12.590Z,20.00
2023-04-25T09:51:19.147Z,22.00
2023-04-25T09:54:23.088Z,24.00
2023-04-25T09:57:30.076Z,27.00
2023-04-25T10:00:35.288Z,29.00
2023-04-25T10:03:51.822Z,25.00
2023-04-25T10:07:11.738Z,25.25
2023-04-25T10:10:14.653Z,21.25
2023-04-25T10:13:18.234Z,21.00
2023-04-25T10:16:22.502Z,20.25
2023-04-25T10:19:26.267Z,20.75
2023-04-25T10:22:34.335Z,16.00
2023-04-25T10:25:39.242Z,16.75
2023-04-25T10:29:04.778Z,15.00
2023-04-25T10:32:07.452Z,16.50
2023-04-25T10:35:18.682Z,15.00
2023-04-25T10:38:21.437Z,16.50
2023-04-25T10:41:24.222Z,14.75
2023-04-25T10:44:31.207Z,13.00
2023-04-25T10:47:38.154Z,14.00
2023-04-25T10:50:41.167Z,14.00
2023-04-25T10:53:46.389Z,11.25
2023-04-25T10:56:49.956Z,14.25
2023-04-25T10:59:52.466Z,9.75
2023-04-25T11:02:59.944Z,15.75
2023-04-25T11:06:03.544Z,14.75
2023-04-25T11:09:13.801Z,12.00
2023-04-25T11:12:17.707Z,11.25
2023-04-25T11:15:22.924Z,11.25
2023-04-25T11:18:28.375Z,11.75
2023-04-25T11:21:33.018Z,12.25
2023-04-25T11:24:37.069Z,11.50
2023-04-25T11:27:54.259Z,14.00
2023-04-25T11:30:57.490Z,14.00
2023-04-25T11:34:00.412Z,11.75
2023-04-25T11:37:04.392Z,11.25
2023-04-25T11:40:08.202Z,10.25
2023-04-25T11:43:10.895Z,7.50
2023-04-25T11:46:13.716Z,9.50
2023-04-25T11:49:16.780Z,10.50
2023-04-25T11:52:19.472Z,11.25
2023-04-25T11:55:21.873Z,10.50
2023-04-25T11:58:25.021Z,9.50
2023-04-25T12:01:35.997Z,11.00
2023-04-25T12:04:39.596Z,10.25
2023-04-25T12:07:42.470Z,11.50
2023-04-25T12:10:47.118Z,12.00
2023-04-25T12:13:54.494Z,10.75
2023-04-25T12:16:59.261Z,10.00
2023-04-25T12:20:08.705Z,11.25
2023-04-25T12:23:12.791Z,11.50
2023-04-25T12:26:15.573Z,10.75
2023-04-25T12:29:23.810Z,11.75
2023-04-25T12:32:27.688Z,11.00
2023-04-25T12:35:30.556Z,8.00
2023-04-25T12:38:33.825Z,10.00
2023-04-25T12:41:36.589Z,11.75
2023-04-25T12:44:39.577Z,10.25
2023-04-25T12:47:42.356Z,8.00
2023-04-25T12:50:45.231Z,10.00
2023-04-25T12:53:48.121Z,8.75
2023-04-25T12:56:51.466Z,10.00
2023-04-25T12:59:54.284Z,8.25
2023-04-25T13:02:57.116Z,10.00
2023-04-25T13:06:00.024Z,8.75
2023-04-25T13:09:02.921Z,15.00
2023-04-25T13:12:06.353Z,12.00
2023-04-25T13:15:10.729Z,10.75
2023-04-25T13:18:13.662Z,11.75
2023-04-25T13:21:16.208Z,10.00
2023-04-25T13:24:19.016Z,10.00
2023-04-25T13:27:21.523Z,10.25
2023-04-25T13:30:24.349Z,11.75
2023-04-25T13:33:27.098Z,11.50
2023-04-25T13:36:30.269Z,13.75
2023-04-25T13:39:32.805Z,13.00
2023-04-25T13:42:35.753Z,12.75
2023-04-25T13:45:38.415Z,13.50
2023-04-25T13:48:55.726Z,12.75
2023-04-25T13:52:02.870Z,13.00
2023-04-25T13:55:12.412Z,12.00
2023-04-25T13:58:16.933Z,13.50
2023-04-25T14:01:38.641Z,11.75
2023-04-25T14:04:51.142Z,12.75
2023-04-25T14:08:03.538Z,11.25
2023-04-25T14:11:10.767Z,13.50
2023-04-25T14:14:18.018Z,12.50
2023-04-25T14:17:22.209Z,13.75
2023-04-25T14:20:25.276Z,17.25
2023-04-25T14:23:29.032Z,11.50
2023-04-25T14:26:40.776Z,12.75
2023-04-25T14:29:52.649Z,18.25
2023-04-25T14:33:05.025Z,14.00
2023-04-25T14:36:16.891Z,14.25
2023-04-25T14:39:23.730Z,11.50
2023-04-25T14:42:27.184Z,17.25
2023-04-25T14:45:29.947Z,13.00
2023-04-25T14:48:34.734Z,9.50
2023-04-25T14:51:39.016Z,12.00
2023-04-25T14:54:41.500Z,13.75
2023-04-25T14:57:44.804Z,8.25
2023-04-25T15:00:48.087Z,11.00
2023-04-25T15:03:52.702Z,11.25
2023-04-25T15:06:55.484Z,10.75
2023-04-25T15:10:03.856Z,14.00
2023-04-25T15:13:06.788Z,12.75
2023-04-25T15:16:09.607Z,12.75
2023-04-25T15:19:12.004Z,14.25
2023-04-25T15:22:14.985Z,10.50
2023-04-25T15:25:20.633Z,13.25
2023-04-25T15:28:23.352Z,11.75
2023-04-25T15:31:25.793Z,10.25
2023-04-25T15:34:28.839Z,12.00
2023-04-25T15:37:31.623Z,11.25
2023-04-25T15:40:34.422Z,11.75
2023-04-25T15:43:40.661Z,16.50
2023-04-25T15:46:44.638Z,12.75
2023-04-25T15:49:47.368Z,14.25
2023-04-25T15:52:53.907Z,16.00
2023-04-25T15:55:56.217Z,17.75
2023-04-25T15:58:59.237Z,15.00
2023-04-25T16:02:01.634Z,13.25
2023-04-25T16:05:04.883Z,16.25
2023-04-25T16:08:07.350Z,16.75
2023-04-25T16:11:10.329Z,12.75
2023-04-25T16:14:12.818Z,18.00
2023-04-25T16:17:16.618Z,15.75
2023-04-25T16:20:19.341Z,15.00
2023-04-25T16:23:22.431Z,18.25
2023-04-25T16:26:24.864Z,16.00
2023-04-25T16:29:27.791Z,17.25
2023-04-25T16:32:30.421Z,17.00
2023-04-25T16:35:33.599Z,13.75
2023-04-25T16:38:36.559Z,13.00
2023-04-25T16:41:39.366Z,21.50
2023-04-25T16:44:41.940Z,14.50
2023-04-25T16:47:44.918Z,17.75
2023-04-25T16:50:47.528Z,18.25
2023-04-25T16:53:50.392Z,18.00
2023-04-25T16:56:53.168Z,18.75
2023-04-25T16:59:56.935Z,17.50
2023-04-25T17:03:00.059Z,21.00
2023-04-25T17:06:03.921Z,16.75
2023-04-25T17:09:06.986Z,18.25
2023-04-25T17:12:10.763Z,16.00
2023-04-25T17:15:13.682Z,22.75
2023-04-25T17:18:18.719Z,20.75
2023-04-25T17:21:22.488Z,21.00
2023-04-25T17:24:25.749Z,19.50
2023-04-25T17:27:28.910Z,22.00
2023-04-25T17:30:35.927Z,27.25
2023-04-25T17:33:39.170Z,19.75
2023-04-25T17:36:43.189Z,23.00
2023-04-25T17:39:49.854Z,20.50
2023-04-25T17:42:56.331Z,24.00
2023-04-25T17:45:59.742Z,21.00
2023-04-25T17:49:05.946Z,21.25
2023-04-25T17:52:09.294Z,20.75
2023-04-25T17:55:23.450Z,22.25
2023-04-25T17:58:26.810Z,20.75
2023-04-25T18:01:30.159Z,21.25
2023-04-25T18:04:34.860Z,23.25
2023-04-25T18:07:39.024Z,22.25
2023-04-25T18:10:44.304Z,19.25
2023-04-25T18:13:49.805Z,22.50
2023-04-25T18:16:56.858Z,23.25
2023-04-25T18:20:02.408Z,24.00
2023-04-25T18:23:06.366Z,19.75
2023-04-25T18:26:10.535Z,21.50
2023-04-25T18:29:28.999Z,20.25
2023-04-25T18:32:36.415Z,23.50
2023-04-25T18:35:45.118Z,21.25
2023-04-25T18:39:03.360Z,22.75
2023-04-25T18:42:17.791Z,22.00
2023-04-25T18:45:24.914Z,22.00
2023-04-25T18:48:28.762Z,25.25
2023-04-25T18:51:33.212Z,21.00
2023-04-25T18:54:37.672Z,23.75
2023-04-25T18:57:41.438Z,23.50
2023-04-25T19:00:44.349Z,21.75
2023-04-25T19:03:58.979Z,22.75
2023-04-25T19:07:04.513Z,20.75
2023-04-25T19:10:09.052Z,21.25
2023-04-25T19:13:14.014Z,21.50
2023-04-25T19:16:19.198Z,21.75
2023-04-25T19:19:22.945Z,22.25
2023-04-25T19:22:27.844Z,19.25
2023-04-25T19:25:31.688Z,24.00
2023-04-25T19:28:36.155Z,25.50
2023-04-25T19:31:43.218Z,26.25
2023-04-25T19:34:51.090Z,21.50
2023-04-25T19:37:55.858Z,20.50
2023-04-25T19:41:01.753Z,22.50
2023-04-25T19:44:07.567Z,29.00
2023-04-25T19:47:12.794Z,21.50
2023-04-25T19:50:16.590Z,29.50
2023-04-25T19:53:22.788Z,22.50
2023-04-25T19:56:31.371Z,27.25
2023-04-25T19:59:35.260Z,25.00
2023-04-25T20:02:41.372Z,26.25
2023-04-25T20:05:45.316Z,18.25
2023-04-25T20:08:49.438Z,30.75
2023-04-25T20:11:53.540Z,27.75
2023-04-25T20:14:57.157Z,29.50
2023-04-25T20:18:01.865Z,22.75
2023-04-25T20:21:04.590Z,27.25
2023-04-25T20:24:09.110Z,28.75
2023-04-25T20:27:12.326Z,25.25
2023-04-25T20:30:21.799Z,23.75
2023-04-25T20:33:26.390Z,27.00
2023-04-25T20:36:30.758Z,21.00
2023-04-25T20:39:34.541Z,24.00
2023-04-25T20:42:41.404Z,23.00
2023-04-25T20:45:44.206Z,25.00
2023-04-25T20:48:47.389Z,17.00
2023-04-25T20:51:49.994Z,18.25
2023-04-25T20:54:54.468Z,24.50
2023-04-25T20:57:57.032Z,28.50
2023-04-25T21:01:00.133Z,23.00
2023-04-25T21:04:03.036Z,21.50
2023-04-25T21:07:06.035Z,20.50
2023-04-25T21:10:08.958Z,28.00
2023-04-25T21:13:12.750Z,26.75
2023-04-25T21:16:15.413Z,26.00
2023-04-25T21:19:18.903Z,28.75
2023-04-25T21:22:22.758Z,27.50
2023-04-25T21:25:31.414Z,26.75
2023-04-25T21:28:34.614Z,26.25
2023-04-25T21:31:38.728Z,25.75
2023-04-25T21:34:43.501Z,24.00
2023-04-25T21:37:46.927Z,26.00
2023-04-25T21:40:50.318Z,26.50
2023-04-25T21:43:53.572Z,20.75
2023-04-25T21:46:56.447Z,18.75
2023-04-25T21:49:59.637Z,17.75
2023-04-25T21:53:02.141Z,18.25
2023-04-25T21:56:06.645Z,15.00
2023-04-25T21:59:09.640Z,17.25
2023-04-25T22:02:12.793Z,15.75
2023-04-25T22:05:15.974Z,12.50
2023-04-25T22:08:18.841Z,12.00
2023-04-25T22:11:24.751Z,11.00
2023-04-25T22:14:28.663Z,10.50
2023-04-25T22:18:16.526Z,7.00
2023-04-25T22:21:19.421Z,9.25
2023-04-25T22:24:22.268Z,8.25
2023-04-25T22:27:25.392Z,9.00
2023-04-25T22:30:31.013Z,9.00
2023-04-25T22:33:34.355Z,12.25
2023-04-25T22:36:36.978Z,12.25
2023-04-25T22:39:39.940Z,12.75
2023-04-25T22:42:44.535Z,8.50
2023-04-25T22:45:47.704Z,11.50
2023-04-25T22:48:51.184Z,8.50
2023-04-25T22:51:57.935Z,11.75
2023-04-25T22:55:02.046Z,12.25
2023-04-25T22:58:08.973Z,10.75
2023-04-25T23:01:11.938Z,13.00
2023-04-25T23:04:15.237Z,12.00
2023-04-25T23:07:17.988Z,13.75
2023-04-25T23:10:20.871Z,11.00
2023-04-25T23:13:23.562Z,13.00
2023-04-25T23:16:26.908Z,11.25
2023-04-25T23:19:30.047Z,12.00
2023-04-25T23:22:33.036Z,12.50
2023-04-25T23:25:40.249Z,6.00
2023-04-25T23:28:43.362Z,6.00
2023-04-25T23:31:46.069Z,5.00
2023-04-25T23:34:49.888Z,5.00
2023-04-25T23:37:52.600Z,3.50
2023-04-25T23:40:55.713Z,4.00
2023-04-25T23:43:58.366Z,1.00
2023-04-25T23:47:01.547Z,1.00
2023-04-25T23:50:04.648Z,2.00
2023-04-25T23:53:07.848Z,4.00
2023-04-25T23:56:10.169Z,3.50
2023-04-25T23:59:13.331Z,5.00
